createdAt,value
2019-04-10T00:01:40.611Z,96.40
2019-04-10T00:04:10.529Z,96.50
2019-04-10T00:06:40.221Z,96.50
2019-04-10T00:09:12.832Z,96.60
2019-04-10T00:11:43.146Z,96.60
2019-04-10T00:14:12.960Z,96.40
2019-04-10T00:16:42.804Z,96.30
2019-04-10T00:19:14.789Z,96.30
2019-04-10T00:21:48.163Z,96.30
2019-04-10T00:24:17.974Z,96.40
2019-04-10T00:26:48.039Z,96.10
2019-04-10T00:29:18.273Z,96.40
2019-04-10T00:31:48.749Z,96.30
2019-04-10T00:34:21.132Z,96.20
2019-04-10T00:36:51.320Z,96.00
2019-04-10T00:39:22.241Z,96.00
2019-04-10T00:41:54.772Z,95.90
2019-04-10T00:44:25.750Z,95.90
2019-04-10T00:46:56.846Z,96.10
2019-04-10T00:49:30.204Z,95.90
2019-04-10T00:51:59.985Z,95.90
2019-04-10T00:54:30.738Z,95.90
2019-04-10T00:57:03.227Z,95.90
2019-04-10T00:59:33.154Z,95.90
2019-04-10T01:02:03.030Z,95.60
2019-04-10T01:04:32.812Z,95.60
2019-04-10T01:07:02.647Z,95.50
2019-04-10T01:09:33.242Z,95.60
2019-04-10T01:12:03.610Z,95.50
2019-04-10T01:14:33.935Z,95.50
2019-04-10T01:17:04.065Z,95.20
2019-04-10T01:19:34.366Z,95.40
2019-04-10T01:22:04.619Z,95.60
2019-04-10T01:24:35.836Z,95.70
2019-04-10T01:27:05.574Z,95.50
2019-04-10T01:29:35.684Z,95.40
2019-04-10T01:32:05.735Z,95.40
2019-04-10T01:34:35.772Z,95.40
2019-04-10T01:37:08.217Z,95.40
2019-04-10T01:39:38.413Z,95.50
2019-04-10T01:42:08.230Z,94.10
2019-04-10T01:44:38.574Z,94.20
2019-04-10T01:47:08.320Z,94.40
2019-04-10T01:49:37.960Z,94.50
2019-04-10T01:52:08.836Z,94.30
2019-04-10T01:54:39.558Z,94.20
2019-04-10T01:57:10.311Z,94.40
2019-04-10T01:59:41.106Z,94.40
2019-04-10T02:02:18.339Z,94.60
2019-04-10T02:04:51.007Z,94.40
2019-04-10T02:07:22.989Z,94.50
2019-04-10T02:09:56.148Z,94.00
2019-04-10T02:12:26.341Z,94.20
2019-04-10T02:14:56.582Z,94.40
2019-04-10T02:17:26.545Z,94.30
2019-04-10T02:20:00.837Z,94.10
2019-04-10T02:22:30.874Z,94.10
2019-04-10T02:25:01.846Z,94.00
2019-04-10T02:27:34.324Z,94.10
2019-04-10T02:30:05.774Z,93.90
2019-04-10T02:32:37.633Z,93.60
2019-04-10T02:35:10.578Z,93.00
2019-04-10T02:37:41.572Z,93.40
2019-04-10T02:40:12.840Z,93.00
2019-04-10T02:42:43.307Z,92.60
2019-04-10T02:45:15.045Z,92.80
2019-04-10T02:47:47.422Z,92.40
2019-04-10T02:50:18.660Z,92.50
2019-04-10T02:52:50.477Z,92.60
2019-04-10T02:55:19.967Z,92.20
2019-04-10T02:57:51.927Z,92.30
2019-04-10T03:00:22.493Z,91.90
2019-04-10T03:02:54.888Z,91.60
2019-04-10T03:05:25.710Z,91.60
2019-04-10T03:08:43.116Z,91.40
2019-04-10T03:11:00.471Z,91.60
2019-04-10T03:13:27.547Z,91.40
2019-04-10T03:15:59.773Z,91.50
2019-04-10T03:18:33.747Z,91.50
2019-04-10T03:21:05.603Z,91.30
2019-04-10T03:23:35.705Z,91.50
2019-04-10T03:26:05.621Z,91.40
2019-04-10T03:28:35.570Z,91.10
2019-04-10T03:31:07.678Z,91.10
2019-04-10T03:33:47.554Z,91.20
2019-04-10T03:36:17.239Z,91.50
2019-04-10T03:38:55.441Z,91.40
2019-04-10T03:41:19.847Z,91.70
2019-04-10T03:43:50.153Z,91.40
2019-04-10T03:46:20.176Z,91.40
2019-04-10T03:48:50.050Z,91.50
2019-04-10T03:51:21.033Z,91.20
2019-04-10T03:53:50.931Z,91.40
2019-04-10T03:56:23.517Z,91.80
2019-04-10T03:58:53.281Z,91.20
2019-04-10T04:01:23.189Z,91.50
2019-04-10T04:03:57.286Z,91.60
2019-04-10T04:06:27.891Z,91.60
2019-04-10T04:09:06.870Z,91.50
2019-04-10T04:11:29.370Z,91.60
2019-04-10T04:14:04.082Z,91.50
2019-04-10T04:16:34.056Z,91.50
2019-04-10T04:19:03.974Z,91.40
2019-04-10T04:21:54.334Z,91.60
2019-04-10T04:24:53.085Z,91.30
2019-04-10T04:27:20.313Z,91.60
2019-04-10T04:29:58.283Z,92.10
2019-04-10T04:32:29.376Z,92.40
2019-04-10T04:35:38.727Z,92.30
2019-04-10T04:38:04.075Z,92.30
2019-04-10T04:40:34.326Z,92.10
2019-04-10T04:43:14.669Z,92.20
2019-04-10T04:45:46.263Z,92.70
2019-04-10T04:48:16.931Z,92.40
2019-04-10T04:51:01.308Z,92.50
2019-04-10T04:53:32.151Z,92.60
2019-04-10T04:56:03.867Z,92.50
2019-04-10T04:58:41.847Z,92.60
2019-04-10T05:01:24.809Z,92.80
2019-04-10T05:04:15.113Z,92.90
2019-04-10T05:06:45.831Z,93.30
2019-04-10T05:09:44.007Z,93.20
2019-04-10T05:12:16.628Z,93.30
2019-04-10T05:14:48.828Z,93.50
2019-04-10T05:17:18.541Z,93.40
2019-04-10T05:19:48.453Z,93.60
2019-04-10T05:22:18.769Z,92.40
2019-04-10T05:24:48.898Z,92.70
2019-04-10T05:27:18.835Z,93.30
2019-04-10T05:29:48.587Z,93.40
2019-04-10T05:32:18.188Z,93.50
2019-04-10T05:34:47.980Z,93.70
2019-04-10T05:37:19.147Z,93.60
2019-04-10T05:39:50.747Z,93.70
2019-04-10T05:42:22.636Z,93.90
2019-04-10T05:44:52.820Z,93.80
2019-04-10T05:47:22.607Z,93.90
2019-04-10T05:49:53.779Z,94.00
2019-04-10T05:52:23.590Z,94.10
2019-04-10T05:54:53.600Z,93.90
2019-04-10T05:57:32.878Z,94.10
2019-04-10T06:00:02.763Z,93.90
2019-04-10T06:02:32.491Z,94.00
2019-04-10T06:05:02.391Z,93.80
2019-04-10T06:07:35.000Z,94.10
2019-04-10T06:10:08.665Z,94.00
2019-04-10T06:12:38.269Z,94.10
2019-04-10T06:15:09.020Z,93.80
2019-04-10T06:17:39.086Z,93.80
2019-04-10T06:20:09.546Z,93.90
2019-04-10T06:22:39.177Z,93.80
2019-04-10T06:25:12.880Z,93.60
2019-04-10T06:27:40.858Z,93.70
2019-04-10T06:30:12.114Z,93.70
2019-04-10T06:32:42.927Z,94.00
2019-04-10T06:35:13.894Z,94.00
2019-04-10T06:37:43.651Z,94.00
2019-04-10T06:40:19.171Z,94.00
2019-04-10T06:42:51.630Z,93.30
2019-04-10T06:45:17.712Z,93.10
2019-04-10T06:47:50.800Z,93.00
2019-04-10T06:50:21.059Z,93.30
2019-04-10T06:56:09.769Z,93.30
2019-04-10T06:58:42.829Z,93.70
2019-04-10T07:01:21.039Z,93.50
2019-04-10T07:04:23.843Z,93.40
2019-04-10T07:07:00.076Z,93.50
2019-04-10T07:09:42.136Z,93.80
2019-04-10T07:12:14.394Z,93.60
2019-04-10T07:15:04.141Z,93.60
2019-04-10T07:17:40.637Z,93.50
2019-04-10T07:20:19.541Z,93.20
2019-04-10T07:23:23.315Z,93.20
2019-04-10T07:25:48.347Z,93.00
2019-04-10T07:28:19.497Z,93.00
2019-04-10T07:30:49.298Z,93.10
2019-04-10T07:33:20.705Z,93.20
2019-04-10T07:35:50.399Z,92.90
2019-04-10T07:38:21.347Z,92.60
2019-04-10T07:40:51.325Z,92.60
2019-04-10T07:43:24.688Z,92.70
2019-04-10T07:50:02.108Z,92.90
2019-04-10T07:52:33.058Z,92.10
2019-04-10T07:55:02.878Z,91.90
2019-04-10T07:57:36.680Z,92.20
2019-04-10T08:00:11.124Z,92.20
2019-04-10T08:02:43.239Z,92.50
2019-04-10T08:05:13.318Z,92.10
2019-04-10T08:07:43.137Z,92.10
2019-04-10T08:10:12.986Z,92.20
2019-04-10T08:12:50.061Z,92.20
2019-04-10T08:15:16.784Z,92.40
2019-04-10T08:17:49.362Z,92.20
2019-04-10T08:20:23.945Z,92.00
2019-04-10T08:22:53.752Z,92.10
2019-04-10T08:25:23.479Z,91.80
2019-04-10T08:27:54.416Z,91.60
2019-04-10T08:30:25.930Z,91.80
2019-04-10T08:33:01.228Z,92.20
2019-04-10T08:35:29.477Z,91.60
2019-04-10T08:38:01.207Z,91.90
2019-04-10T08:40:34.425Z,91.30
2019-04-10T08:43:04.409Z,91.90
2019-04-10T08:45:44.263Z,91.60
2019-04-10T08:48:05.832Z,91.90
2019-04-10T08:50:36.466Z,91.30
2019-04-10T08:53:09.637Z,91.70
2019-04-10T08:55:40.034Z,91.20
2019-04-10T08:58:10.429Z,90.80
2019-04-10T09:00:46.948Z,91.40
2019-04-10T09:03:18.995Z,90.90
2019-04-10T09:05:53.146Z,91.20
2019-04-10T09:08:23.025Z,90.70
2019-04-10T09:10:52.747Z,91.40
2019-04-10T09:13:22.448Z,90.90
2019-04-10T09:15:52.149Z,91.40
2019-04-10T09:18:21.672Z,90.70
2019-04-10T09:20:51.320Z,90.50
2019-04-10T09:23:30.755Z,90.70
2019-04-10T09:25:52.265Z,90.90
2019-04-10T09:28:22.292Z,90.50
2019-04-10T09:30:51.913Z,90.30
2019-04-10T09:33:26.027Z,90.00
2019-04-10T09:35:53.184Z,89.50
2019-04-10T09:38:24.062Z,90.10
2019-04-10T09:40:55.277Z,89.20
2019-04-10T09:43:34.153Z,90.00
2019-04-10T09:46:04.723Z,87.50
2019-04-10T09:48:40.062Z,88.80
2019-04-10T09:51:11.641Z,87.90
2019-04-10T09:53:45.957Z,89.20
2019-04-10T09:56:13.633Z,88.00
2019-04-10T09:58:43.234Z,89.00
2019-04-10T10:01:16.213Z,88.30
2019-04-10T10:03:46.059Z,88.70
2019-04-10T10:06:24.314Z,87.50
2019-04-10T10:08:52.630Z,88.10
2019-04-10T10:11:22.344Z,87.00
2019-04-10T10:13:52.492Z,85.20
2019-04-10T10:16:25.470Z,85.60
2019-04-10T10:18:56.097Z,85.70
2019-04-10T10:21:26.137Z,86.60
2019-04-10T10:23:56.109Z,85.20
2019-04-10T10:26:26.253Z,85.90
2019-04-10T10:29:11.318Z,85.90
2019-04-10T10:31:41.609Z,83.40
2019-04-10T10:34:20.639Z,83.30
2019-04-10T10:36:52.124Z,83.50
2019-04-10T10:39:23.058Z,85.00
2019-04-10T10:41:58.601Z,84.00
2019-04-10T10:44:32.174Z,83.20
2019-04-10T10:47:02.588Z,83.60
2019-04-10T10:49:32.735Z,83.20
2019-04-10T10:52:11.868Z,84.20
2019-04-10T10:55:09.869Z,84.40
2019-04-10T10:57:41.614Z,84.70
2019-04-10T11:00:20.625Z,82.90
2019-04-10T11:03:02.518Z,82.70
2019-04-10T11:05:35.428Z,83.00
2019-04-10T11:08:06.796Z,81.30
2019-04-10T11:10:41.319Z,83.00
2019-04-10T11:13:15.013Z,83.20
2019-04-10T11:15:46.599Z,83.30
2019-04-10T11:18:19.320Z,82.90
2019-04-10T11:20:49.895Z,85.30
2019-04-10T11:23:20.134Z,83.80
2019-04-10T11:25:50.370Z,81.90
2019-04-10T11:28:22.718Z,82.10
2019-04-10T11:30:56.101Z,82.60
2019-04-10T11:33:25.030Z,83.90
2019-04-10T11:35:55.274Z,82.50
2019-04-10T11:38:26.192Z,82.30
2019-04-10T11:40:59.498Z,83.50
2019-04-10T11:43:30.225Z,83.70
2019-04-10T11:46:07.831Z,83.60
2019-04-10T11:48:39.130Z,83.00
2019-04-10T11:51:13.245Z,84.20
2019-04-10T11:53:44.661Z,84.50
2019-04-10T11:56:13.076Z,84.30
2019-04-10T12:01:23.458Z,84.80
2019-04-10T12:03:56.171Z,84.30
2019-04-10T12:06:25.522Z,84.20
2019-04-10T12:09:19.423Z,85.50
2019-04-10T12:11:28.796Z,83.40
2019-04-10T12:13:58.956Z,83.60
2019-04-10T12:16:29.391Z,84.50
2019-04-10T12:18:59.361Z,83.30
2019-04-10T12:21:29.547Z,83.10
2019-04-10T12:23:59.601Z,83.30
2019-04-10T12:26:29.744Z,83.30
2019-04-10T12:29:00.383Z,83.50
2019-04-10T12:31:30.435Z,84.40
2019-04-10T12:34:01.469Z,82.90
2019-04-10T12:36:31.503Z,84.50
2019-04-10T12:39:01.236Z,83.00
2019-04-10T12:41:31.141Z,84.00
2019-04-10T12:44:01.584Z,84.30
2019-04-10T12:46:31.484Z,83.30
2019-04-10T12:49:05.269Z,84.00
2019-04-10T12:54:19.638Z,84.30
2019-04-10T12:57:02.830Z,83.80
2019-04-10T12:59:31.144Z,83.30
2019-04-10T13:02:10.903Z,83.70
2019-04-10T13:04:53.033Z,81.70
2019-04-10T13:07:25.559Z,82.60
2019-04-10T13:09:55.986Z,83.00
2019-04-10T13:12:26.122Z,81.60
2019-04-10T13:14:57.012Z,82.80
2019-04-10T13:17:26.924Z,82.60
2019-04-10T13:20:30.188Z,81.60
2019-04-10T13:22:40.602Z,82.30
2019-04-10T13:25:18.483Z,82.40
2019-04-10T13:27:59.656Z,82.60
2019-04-10T13:30:44.692Z,82.80
2019-04-10T13:33:08.753Z,83.10
2019-04-10T13:35:38.527Z,82.00
2019-04-10T13:38:08.795Z,82.00
2019-04-10T13:40:39.522Z,81.70
2019-04-10T13:43:13.776Z,80.80
2019-04-10T13:45:45.804Z,82.60
2019-04-10T13:48:17.488Z,80.70
2019-04-10T13:50:47.313Z,82.60
2019-04-10T13:53:17.516Z,80.20
2019-04-10T13:55:49.288Z,81.10
2019-04-10T13:58:19.921Z,82.70
2019-04-10T14:00:55.280Z,81.60
2019-04-10T14:12:49.348Z,81.80
2019-04-10T14:19:13.522Z,83.30
2019-04-10T14:32:09.120Z,82.20
2019-04-10T14:35:29.486Z,82.90
2019-04-10T14:38:10.661Z,82.70
2019-04-10T14:41:44.181Z,83.20
2019-04-10T14:47:36.993Z,83.60
2019-04-10T14:50:09.612Z,82.70
2019-04-10T14:53:07.604Z,83.30
2019-04-10T14:55:37.614Z,83.30
2019-04-10T14:58:19.617Z,83.50
2019-04-10T15:00:49.813Z,80.20
2019-04-10T15:03:22.403Z,79.50
2019-04-10T15:05:58.256Z,80.50
2019-04-10T15:08:28.007Z,81.10
2019-04-10T15:11:01.088Z,82.50
2019-04-10T15:13:50.978Z,82.20
2019-04-10T15:17:07.952Z,83.10
2019-04-10T15:19:53.712Z,83.10
2019-04-10T15:22:23.549Z,83.80
2019-04-10T15:24:53.999Z,82.60
2019-04-10T15:27:27.016Z,83.30
2019-04-10T15:33:47.214Z,84.40
2019-04-10T15:36:20.018Z,84.20
2019-04-10T15:39:02.317Z,83.70
2019-04-10T15:41:39.127Z,83.40
2019-04-10T15:44:09.909Z,84.20
2019-04-10T15:47:49.246Z,83.80
2019-04-10T15:53:49.673Z,84.00
2019-04-10T15:56:40.176Z,85.10
2019-04-10T15:59:32.397Z,84.60
2019-04-10T16:05:26.461Z,84.10
2019-04-10T16:07:56.161Z,83.70
2019-04-10T16:10:57.665Z,84.10
2019-04-10T16:13:44.566Z,84.50
2019-04-10T16:16:37.165Z,84.70
2019-04-10T16:19:24.545Z,84.20
2019-04-10T16:21:54.542Z,84.70
2019-04-10T16:24:27.019Z,85.30
2019-04-10T16:26:57.877Z,85.20
2019-04-10T16:29:28.768Z,85.30
2019-04-10T16:32:00.494Z,85.80
2019-04-10T16:34:30.364Z,86.20
2019-04-10T16:37:01.926Z,85.30
2019-04-10T16:39:36.471Z,86.00
2019-04-10T16:42:12.679Z,85.40
2019-04-10T16:44:45.627Z,86.40
2019-04-10T16:47:15.589Z,86.90
2019-04-10T16:49:45.228Z,85.60
2019-04-10T16:52:14.918Z,85.50
2019-04-10T16:58:33.917Z,84.30
2019-04-10T17:01:04.339Z,84.20
2019-04-10T17:03:34.208Z,85.50
2019-04-10T17:06:04.055Z,84.70
2019-04-10T17:08:34.273Z,85.20
2019-04-10T17:11:17.374Z,85.90
2019-04-10T17:13:48.817Z,85.60
2019-04-10T17:16:27.704Z,85.60
2019-04-10T17:19:13.907Z,84.90
2019-04-10T17:22:30.873Z,85.10
2019-04-10T17:25:52.705Z,84.90
2019-04-10T17:28:24.818Z,85.50
2019-04-10T17:31:26.544Z,86.10
2019-04-10T17:35:09.492Z,86.00
2019-04-10T17:37:21.302Z,85.90
2019-04-10T17:43:29.948Z,86.10
2019-04-10T17:46:24.971Z,86.70
2019-04-10T17:49:49.725Z,86.70
2019-04-10T17:52:56.685Z,86.90
2019-04-10T17:55:37.681Z,87.10
2019-04-10T17:58:27.845Z,87.50
2019-04-10T18:01:32.736Z,87.30
2019-04-10T18:05:06.691Z,86.50
2019-04-10T18:11:06.068Z,86.00
2019-04-10T18:13:58.633Z,86.30
2019-04-10T18:20:36.951Z,86.50
2019-04-10T18:23:03.085Z,86.50
2019-04-10T18:25:49.927Z,86.60
2019-04-10T18:28:35.003Z,87.50
2019-04-10T18:32:00.918Z,87.20
2019-04-10T18:35:04.550Z,87.40
2019-04-10T18:37:39.350Z,87.40
2019-04-10T18:41:32.412Z,87.30
2019-04-10T18:46:20.796Z,87.10
2019-04-10T18:48:54.735Z,87.50
2019-04-10T18:54:50.319Z,88.40
2019-04-10T18:57:20.354Z,88.10
2019-04-10T19:00:10.132Z,88.10
2019-04-10T19:03:07.713Z,88.40
2019-04-10T19:05:56.342Z,87.90
2019-04-10T19:08:26.203Z,88.70
2019-04-10T19:11:08.341Z,88.70
2019-04-10T19:13:28.573Z,89.40
2019-04-10T19:16:02.102Z,89.00
2019-04-10T19:18:32.143Z,88.70
2019-04-10T19:21:05.305Z,88.60
2019-04-10T19:23:53.220Z,88.70
2019-04-10T19:26:23.482Z,89.00
2019-04-10T19:28:53.190Z,87.90
2019-04-10T19:31:40.721Z,88.80
2019-04-10T19:34:19.937Z,89.40
2019-04-10T19:36:50.132Z,89.00
2019-04-10T19:39:40.477Z,88.90
2019-04-10T19:42:22.837Z,89.30
2019-04-10T19:45:19.511Z,89.60
2019-04-10T19:47:50.570Z,89.10
2019-04-10T19:50:21.399Z,88.50
2019-04-10T19:52:51.046Z,87.70
2019-04-10T19:55:21.859Z,87.40
2019-04-10T19:57:51.759Z,88.20
2019-04-10T20:00:24.518Z,88.90
2019-04-10T20:02:55.159Z,88.00
2019-04-10T20:05:25.328Z,88.00
2019-04-10T20:07:55.425Z,88.20
2019-04-10T20:10:25.446Z,88.50
2019-04-10T20:12:55.239Z,89.00
2019-04-10T20:15:24.980Z,89.10
2019-04-10T20:17:54.688Z,88.70
2019-04-10T20:20:24.246Z,88.00
2019-04-10T20:22:53.960Z,88.30
2019-04-10T20:25:24.085Z,87.90
2019-04-10T20:27:53.891Z,87.50
2019-04-10T20:30:25.812Z,87.60
2019-04-10T20:32:56.478Z,87.90
2019-04-10T20:35:26.619Z,87.10
2019-04-10T20:37:56.476Z,87.90
2019-04-10T20:40:26.128Z,87.70
2019-04-10T20:42:56.318Z,87.80
2019-04-10T20:45:27.682Z,87.70
2019-04-10T20:47:58.191Z,87.70
2019-04-10T20:50:27.978Z,87.70
2019-04-10T20:52:57.793Z,87.60
2019-04-10T20:55:27.962Z,88.70
2019-04-10T20:57:57.627Z,88.70
2019-04-10T21:00:32.114Z,88.60
2019-04-10T21:03:02.792Z,89.20
2019-04-10T21:05:32.392Z,89.70
2019-04-10T21:08:02.157Z,89.30
2019-04-10T21:10:31.873Z,89.80
2019-04-10T21:13:01.607Z,90.00
2019-04-10T21:15:31.570Z,89.70
2019-04-10T21:18:02.506Z,90.30
2019-04-10T21:20:32.435Z,90.20
2019-04-10T21:23:02.082Z,90.30
2019-04-10T21:25:32.929Z,90.30
2019-04-10T21:28:02.700Z,90.30
2019-04-10T21:30:53.877Z,90.50
2019-04-10T21:33:46.996Z,90.60
2019-04-10T21:36:20.522Z,90.80
2019-04-10T21:38:53.338Z,90.60
2019-04-10T21:41:24.054Z,90.60
2019-04-10T21:43:53.918Z,90.60
2019-04-10T21:46:25.549Z,90.80
2019-04-10T21:52:27.726Z,90.80
2019-04-10T21:55:00.088Z,90.80
2019-04-10T21:58:00.783Z,90.80
2019-04-10T22:00:53.892Z,90.90
2019-04-10T22:03:22.518Z,91.00
2019-04-10T22:06:01.533Z,91.20
2019-04-10T22:08:42.011Z,91.00
2019-04-10T22:11:16.911Z,91.00
2019-04-10T22:13:46.659Z,91.10
2019-04-10T22:16:17.825Z,91.10
2019-04-10T22:18:47.870Z,91.30
2019-04-10T22:21:18.596Z,91.40
2019-04-10T22:23:49.026Z,91.30
2019-04-10T22:26:19.909Z,91.40
2019-04-10T22:28:49.733Z,91.20
2019-04-10T22:31:20.299Z,91.60
2019-04-10T22:33:49.982Z,91.60
2019-04-10T22:36:20.634Z,91.40
2019-04-10T22:38:50.427Z,91.70
2019-04-10T22:41:27.129Z,91.60
2019-04-10T22:43:51.232Z,91.50
2019-04-10T22:46:23.185Z,91.30
2019-04-10T22:48:53.456Z,91.50
2019-04-10T22:51:23.159Z,91.70
2019-04-10T22:53:53.484Z,91.80
2019-04-10T22:56:23.280Z,91.60
2019-04-10T22:58:53.247Z,91.70
2019-04-10T23:01:22.911Z,91.50
2019-04-10T23:03:53.026Z,91.60
2019-04-10T23:06:23.035Z,91.40
2019-04-10T23:08:52.809Z,91.50
2019-04-10T23:11:33.505Z,91.50
2019-04-10T23:13:54.269Z,91.50
2019-04-10T23:16:24.172Z,91.60
2019-04-10T23:19:00.145Z,91.50
2019-04-10T23:21:25.244Z,91.60
2019-04-10T23:23:55.036Z,91.50
2019-04-10T23:26:25.163Z,91.80
2019-04-10T23:28:55.861Z,91.50
2019-04-10T23:31:25.788Z,91.70
2019-04-10T23:33:56.463Z,91.60
2019-04-10T23:36:26.537Z,91.80
2019-04-10T23:38:56.078Z,92.10
2019-04-10T23:41:25.703Z,92.10
2019-04-10T23:43:55.783Z,92.10
2019-04-10T23:46:26.369Z,91.90
2019-04-10T23:48:57.209Z,91.80
2019-04-10T23:51:27.322Z,91.60
2019-04-10T23:53:57.266Z,91.90
2019-04-10T23:56:27.366Z,92.00
2019-04-10T23:58:58.173Z,91.60
